Terminal Aerodrome Forecast
Issued by NWS

Current Version | Previous Version | Text Only | Print | Product List | Glossary On
Versions: 1 2 3 4 5 6 7 8 9 10 11 12 13
000
FTUS42 TJSJ 301100
TAFJMZ
TAF
TJMZ 301139Z 3012/3112 VRB05KT P6SM FEW025
     FM301630 11010KT P6SM VCTS SCT030CB BKN040
     FM302230 VRB05KT P6SM SCT025 SCT040=

USA.gov is the U.S. government's official web portal to all federal, state and local government web resources and services.